sensor_id;sensor_type;location;lat;lon;timestamp;pressure;altitude;pressure_sealevel;temperature;humidity
68889;BME280;55930;47.412;8.790;2024-03-06T00:02:23;94754.88;;;2.63;100.00
68889;BME280;55930;47.412;8.790;2024-03-06T00:05:43;94765.09;;;2.34;100.00
68889;BME280;55930;47.412;8.790;2024-03-06T00:09:05;94769.81;;;2.19;100.00
68889;BME280;55930;47.412;8.790;2024-03-06T00:12:25;94772.03;;;2.21;100.00
68889;BME280;55930;47.412;8.790;2024-03-06T00:15:45;94774.88;;;2.30;100.00
68889;BME280;55930;47.412;8.790;2024-03-06T00:19:06;94775.72;;;2.00;100.00
68889;BME280;55930;47.412;8.790;2024-03-06T00:22:26;94776.81;;;2.03;100.00
68889;BME280;55930;47.412;8.790;2024-03-06T00:25:46;94777.19;;;2.01;100.00
68889;BME280;55930;47.412;8.790;2024-03-06T00:29:07;94787.38;;;2.19;100.00
68889;BME280;55930;47.412;8.790;2024-03-06T00:32:27;94786.81;;;2.08;100.00
68889;BME280;55930;47.412;8.790;2024-03-06T00:35:48;94786.81;;;2.08;100.00
68889;BME280;55930;47.412;8.790;2024-03-06T00:39:09;94791.28;;;1.84;100.00
68889;BME280;55930;47.412;8.790;2024-03-06T00:42:30;94787.25;;;2.03;100.00
68889;BME280;55930;47.412;8.790;2024-03-06T00:45:50;94794.16;;;2.16;100.00
68889;BME280;55930;47.412;8.790;2024-03-06T00:49:10;94784.25;;;2.04;100.00
68889;BME280;55930;47.412;8.790;2024-03-06T00:52:33;94787.84;;;1.90;100.00
68889;BME280;55930;47.412;8.790;2024-03-06T00:55:53;94795.13;;;2.03;100.00
68889;BME280;55930;47.412;8.790;2024-03-06T00:59:16;94796.81;;;1.89;100.00
68889;BME280;55930;47.412;8.790;2024-03-06T01:02:37;94806.94;;;1.87;100.00
68889;BME280;55930;47.412;8.790;2024-03-06T01:05:58;94801.59;;;1.68;100.00
68889;BME280;55930;47.412;8.790;2024-03-06T01:09:20;94812.41;;;1.97;100.00
68889;BME280;55930;47.412;8.790;2024-03-06T01:12:41;94804.59;;;1.93;100.00
68889;BME280;55930;47.412;8.790;2024-03-06T01:16:06;94813.41;;;1.79;100.00
68889;BME280;55930;47.412;8.790;2024-03-06T01:19:27;94812.25;;;1.53;100.00
68889;BME280;55930;47.412;8.790;2024-03-06T01:22:48;94817.78;;;1.59;100.00
68889;BME280;55930;47.412;8.790;2024-03-06T01:26:10;94817.47;;;1.53;100.00
68889;BME280;55930;47.412;8.790;2024-03-06T01:29:32;94816.31;;;1.58;100.00
68889;BME280;55930;47.412;8.790;2024-03-06T01:32:52;94812.88;;;1.34;100.00
68889;BME280;55930;47.412;8.790;2024-03-06T01:36:13;94810.03;;;1.22;100.00
68889;BME280;55930;47.412;8.790;2024-03-06T01:39:35;94822.28;;;0.94;100.00
68889;BME280;55930;47.412;8.790;2024-03-06T01:42:56;94817.44;;;0.93;100.00
68889;BME280;55930;47.412;8.790;2024-03-06T01:46:16;94815.97;;;0.88;100.00
68889;BME280;55930;47.412;8.790;2024-03-06T01:49:37;94814.09;;;0.92;100.00
68889;BME280;55930;47.412;8.790;2024-03-06T01:52:57;94815.56;;;0.93;100.00
68889;BME280;55930;47.412;8.790;2024-03-06T01:56:18;94801.66;;;1.03;100.00
68889;BME280;55930;47.412;8.790;2024-03-06T01:59:38;94801.38;;;0.94;100.00
68889;BME280;55930;47.412;8.790;2024-03-06T02:03:00;94805.06;;;0.63;100.00
68889;BME280;55930;47.412;8.790;2024-03-06T02:06:21;94812.31;;;0.82;100.00
68889;BME280;55930;47.412;8.790;2024-03-06T02:09:42;94807.19;;;0.75;100.00
68889;BME280;55930;47.412;8.790;2024-03-06T02:13:05;94802.72;;;0.72;100.00
68889;BME280;55930;47.412;8.790;2024-03-06T02:16:25;94802.03;;;0.64;100.00
68889;BME280;55930;47.412;8.790;2024-03-06T02:19:47;94803.88;;;0.71;100.00
68889;BME280;55930;47.412;8.790;2024-03-06T02:23:07;94808.00;;;0.68;100.00
68889;BME280;55930;47.412;8.790;2024-03-06T02:26:28;94811.72;;;0.67;100.00
68889;BME280;55930;47.412;8.790;2024-03-06T02:29:48;94804.88;;;0.81;100.00
68889;BME280;55930;47.412;8.790;2024-03-06T02:33:08;94803.44;;;0.76;100.00
68889;BME280;55930;47.412;8.790;2024-03-06T02:36:34;94809.03;;;0.74;100.00
68889;BME280;55930;47.412;8.790;2024-03-06T02:39:54;94812.81;;;0.70;100.00
68889;BME280;55930;47.412;8.790;2024-03-06T02:43:15;94817.94;;;0.81;100.00
68889;BME280;55930;47.412;8.790;2024-03-06T02:46:36;94820.91;;;0.83;100.00
68889;BME280;55930;47.412;8.790;2024-03-06T02:49:57;94819.47;;;0.74;100.00
68889;BME280;55930;47.412;8.790;2024-03-06T02:53:17;94820.97;;;0.75;100.00
68889;BME280;55930;47.412;8.790;2024-03-06T02:56:38;94820.97;;;0.75;100.00
68889;BME280;55930;47.412;8.790;2024-03-06T02:59:58;94822.16;;;0.71;100.00
68889;BME280;55930;47.412;8.790;2024-03-06T03:03:19;94822.53;;;0.69;100.00
68889;BME280;55930;47.412;8.790;2024-03-06T03:06:40;94821.34;;;0.74;100.00
68889;BME280;55930;47.412;8.790;2024-03-06T03:10:00;94828.78;;;0.79;100.00
68889;BME280;55930;47.412;8.790;2024-03-06T03:13:20;94817.19;;;0.80;100.00
68889;BME280;55930;47.412;8.790;2024-03-06T03:16:42;94825.53;;;0.68;100.00
68889;BME280;55930;47.412;8.790;2024-03-06T03:20:03;94825.50;;;0.71;100.00
68889;BME280;55930;47.412;8.790;2024-03-06T03:23:30;94826.66;;;0.67;100.00
68889;BME280;55930;47.412;8.790;2024-03-06T03:26:50;94827.97;;;0.86;100.00
68889;BME280;55930;47.412;8.790;2024-03-06T03:30:13;94815.06;;;0.68;100.00
68889;BME280;55930;47.412;8.790;2024-03-06T03:33:38;94817.97;;;0.77;100.00
68889;BME280;55930;47.412;8.790;2024-03-06T03:36:59;94817.22;;;0.76;100.00
68889;BME280;55930;47.412;8.790;2024-03-06T03:40:22;94830.34;;;0.69;100.00
68889;BME280;55930;47.412;8.790;2024-03-06T03:43:43;94826.25;;;0.68;100.00
68889;BME280;55930;47.412;8.790;2024-03-06T03:47:06;94837.13;;;0.63;100.00
68889;BME280;55930;47.412;8.790;2024-03-06T03:50:26;94828.50;;;0.70;100.00
68889;BME280;55930;47.412;8.790;2024-03-06T03:53:46;94832.31;;;0.58;100.00
68889;BME280;55930;47.412;8.790;2024-03-06T03:57:11;94838.94;;;0.70;100.00
68889;BME280;55930;47.412;8.790;2024-03-06T04:00:31;94849.41;;;0.66;100.00
68889;BME280;55930;47.412;8.790;2024-03-06T04:03:52;94844.91;;;0.67;100.00
68889;BME280;55930;47.412;8.790;2024-03-06T04:07:12;94849.09;;;0.61;100.00
68889;BME280;55930;47.412;8.790;2024-03-06T04:10:33;94838.13;;;0.73;100.00
68889;BME280;55930;47.412;8.790;2024-03-06T04:13:53;94842.97;;;0.74;100.00
68889;BME280;55930;47.412;8.790;2024-03-06T04:17:14;94850.50;;;0.69;100.00
68889;BME280;55930;47.412;8.790;2024-03-06T04:20:35;94849.38;;;0.70;100.00
68889;BME280;55930;47.412;8.790;2024-03-06T04:24:02;94856.84;;;0.68;100.00
68889;BME280;55930;47.412;8.790;2024-03-06T04:27:25;94850.13;;;0.70;100.00
68889;BME280;55930;47.412;8.790;2024-03-06T04:30:46;94849.66;;;0.79;100.00
68889;BME280;55930;47.412;8.790;2024-03-06T04:34:06;94858.63;;;0.78;100.00
68889;BME280;55930;47.412;8.790;2024-03-06T04:37:27;94861.53;;;0.84;100.00
68889;BME280;55930;47.412;8.790;2024-03-06T04:40:49;94864.59;;;0.75;100.00
68889;BME280;55930;47.412;8.790;2024-03-06T04:44:12;94856.34;;;0.80;100.00
68889;BME280;55930;47.412;8.790;2024-03-06T04:47:32;94869.81;;;0.79;100.00
68889;BME280;55930;47.412;8.790;2024-03-06T04:50:52;94869.81;;;0.79;100.00
68889;BME280;55930;47.412;8.790;2024-03-06T04:54:13;94867.66;;;0.70;100.00
68889;BME280;55930;47.412;8.790;2024-03-06T04:57:34;94876.59;;;0.69;100.00
68889;BME280;55930;47.412;8.790;2024-03-06T05:00:54;94887.47;;;0.64;100.00
68889;BME280;55930;47.412;8.790;2024-03-06T05:04:15;94877.50;;;0.52;100.00
68889;BME280;55930;47.412;8.790;2024-03-06T05:07:35;94890.84;;;0.61;100.00
68889;BME280;55930;47.412;8.790;2024-03-06T05:11:00;94891.97;;;0.60;100.00
68889;BME280;55930;47.412;8.790;2024-03-06T05:14:23;94897.16;;;0.63;100.00
68889;BME280;55930;47.412;8.790;2024-03-06T05:17:44;94902.72;;;0.65;100.00
68889;BME280;55930;47.412;8.790;2024-03-06T05:21:04;94906.06;;;0.66;100.00
68889;BME280;55930;47.412;8.790;2024-03-06T05:24:24;94904.25;;;0.63;100.00
68889;BME280;55930;47.412;8.790;2024-03-06T05:27:45;94903.44;;;0.69;100.00
68889;BME280;55930;47.412;8.790;2024-03-06T05:31:16;94895.31;;;0.64;100.00
68889;BME280;55930;47.412;8.790;2024-03-06T05:34:39;94899.78;;;0.60;100.00
68889;BME280;55930;47.412;8.790;2024-03-06T05:37:59;94899.72;;;0.70;100.00
68889;BME280;55930;47.412;8.790;2024-03-06T05:41:20;94912.41;;;0.68;100.00
68889;BME280;55930;47.412;8.790;2024-03-06T05:44:40;94908.00;;;0.62;100.00
68889;BME280;55930;47.412;8.790;2024-03-06T05:48:01;94922.88;;;0.65;100.00
68889;BME280;55930;47.412;8.790;2024-03-06T05:51:21;94923.59;;;0.69;100.00
68889;BME280;55930;47.412;8.790;2024-03-06T05:54:41;94934.06;;;0.65;100.00
68889;BME280;55930;47.412;8.790;2024-03-06T05:58:02;94931.06;;;0.67;100.00
68889;BME280;55930;47.412;8.790;2024-03-06T06:01:22;94939.31;;;0.62;100.00
68889;BME280;55930;47.412;8.790;2024-03-06T06:04:43;94935.16;;;0.68;100.00
68889;BME280;55930;47.412;8.790;2024-03-06T06:08:03;94939.63;;;0.67;100.00
68889;BME280;55930;47.412;8.790;2024-03-06T06:11:26;94944.50;;;0.65;100.00
68889;BME280;55930;47.412;8.790;2024-03-06T06:14:46;94951.94;;;0.67;100.00
68889;BME280;55930;47.412;8.790;2024-03-06T06:18:07;94954.91;;;0.69;100.00
68889;BME280;55930;47.412;8.790;2024-03-06T06:21:27;94953.38;;;0.75;100.00
68889;BME280;55930;47.412;8.790;2024-03-06T06:24:47;94961.59;;;0.73;100.00
68889;BME280;55930;47.412;8.790;2024-03-06T06:28:11;94962.81;;;0.58;100.00
68889;BME280;55930;47.412;8.790;2024-03-06T06:31:31;94959.41;;;0.65;100.00
68889;BME280;55930;47.412;8.790;2024-03-06T06:34:52;94972.16;;;0.56;100.00
68889;BME280;55930;47.412;8.790;2024-03-06T06:38:12;94972.09;;;0.66;100.00
68889;BME280;55930;47.412;8.790;2024-03-06T06:41:33;94965.34;;;0.69;100.00
68889;BME280;55930;47.412;8.790;2024-03-06T06:44:53;94967.91;;;0.76;100.00
68889;BME280;55930;47.412;8.790;2024-03-06T06:48:13;94969.09;;;0.64;100.00
68889;BME280;55930;47.412;8.790;2024-03-06T06:51:34;94964.97;;;0.70;100.00
68889;BME280;55930;47.412;8.790;2024-03-06T06:54:55;94976.22;;;0.64;100.00
68889;BME280;55930;47.412;8.790;2024-03-06T06:58:15;94980.97;;;0.76;100.00
68889;BME280;55930;47.412;8.790;2024-03-06T07:01:36;94982.84;;;0.72;100.00
68889;BME280;55930;47.412;8.790;2024-03-06T07:04:56;94983.22;;;0.74;100.00
68889;BME280;55930;47.412;8.790;2024-03-06T07:08:17;95002.53;;;0.84;100.00
68889;BME280;55930;47.412;8.790;2024-03-06T07:11:37;94997.75;;;0.75;100.00
68889;BME280;55930;47.412;8.790;2024-03-06T07:14:58;94999.63;;;0.74;100.00
68889;BME280;55930;47.412;8.790;2024-03-06T07:18:19;95000.09;;;0.59;100.00
68889;BME280;55930;47.412;8.790;2024-03-06T07:21:39;95007.06;;;0.76;100.00
68889;BME280;55930;47.412;8.790;2024-03-06T07:25:04;95011.50;;;0.83;100.00
68889;BME280;55930;47.412;8.790;2024-03-06T07:28:25;95004.47;;;0.80;100.00
68889;BME280;55930;47.412;8.790;2024-03-06T07:31:46;95006.72;;;0.74;100.00
68889;BME280;55930;47.412;8.790;2024-03-06T07:35:07;95012.69;;;0.74;100.00
68889;BME280;55930;47.412;8.790;2024-03-06T07:38:27;95014.19;;;0.72;100.00
68889;BME280;55930;47.412;8.790;2024-03-06T07:41:48;95017.47;;;0.83;100.00
68889;BME280;55930;47.412;8.790;2024-03-06T07:45:09;95025.72;;;0.74;100.00
68889;BME280;55930;47.412;8.790;2024-03-06T07:48:29;95026.44;;;0.82;100.00
68889;BME280;55930;47.412;8.790;2024-03-06T07:51:50;95027.50;;;0.88;100.00
68889;BME280;55930;47.412;8.790;2024-03-06T07:55:13;95025.63;;;0.92;100.00
68889;BME280;55930;47.412;8.790;2024-03-06T07:58:34;95021.88;;;0.93;100.00
68889;BME280;55930;47.412;8.790;2024-03-06T08:01:54;95020.06;;;0.87;100.00
68889;BME280;55930;47.412;8.790;2024-03-06T08:05:16;95032.97;;;1.04;100.00
68889;BME280;55930;47.412;8.790;2024-03-06T08:08:40;95036.75;;;1.03;100.00
68889;BME280;55930;47.412;8.790;2024-03-06T08:12:00;95037.16;;;0.95;100.00
68889;BME280;55930;47.412;8.790;2024-03-06T08:15:21;95043.47;;;1.01;100.00
68889;BME280;55930;47.412;8.790;2024-03-06T08:18:44;95045.28;;;1.07;100.00
68889;BME280;55930;47.412;8.790;2024-03-06T08:22:05;95043.72;;;1.13;100.00
68889;BME280;55930;47.412;8.790;2024-03-06T08:25:27;95037.47;;;1.04;100.00
68889;BME280;55930;47.412;8.790;2024-03-06T08:28:48;95049.69;;;1.18;100.00
68889;BME280;55930;47.412;8.790;2024-03-06T08:32:09;95047.19;;;1.03;100.00
68889;BME280;55930;47.412;8.790;2024-03-06T08:35:29;95052.69;;;1.12;100.00
68889;BME280;55930;47.412;8.790;2024-03-06T08:38:49;95048.13;;;1.27;100.00
68889;BME280;55930;47.412;8.790;2024-03-06T08:42:12;95053.44;;;1.17;100.00
68889;BME280;55930;47.412;8.790;2024-03-06T08:45:34;95065.66;;;1.27;100.00
68889;BME280;55930;47.412;8.790;2024-03-06T08:48:54;95062.63;;;1.32;100.00
68889;BME280;55930;47.412;8.790;2024-03-06T08:52:14;95066.75;;;1.33;100.00
68889;BME280;55930;47.412;8.790;2024-03-06T08:55:35;95076.88;;;1.27;100.00
68889;BME280;55930;47.412;8.790;2024-03-06T08:58:55;95073.91;;;1.22;100.00
68889;BME280;55930;47.412;8.790;2024-03-06T09:02:17;95083.59;;;1.25;100.00
68889;BME280;55930;47.412;8.790;2024-03-06T09:05:38;95082.84;;;1.28;100.00
68889;BME280;55930;47.412;8.790;2024-03-06T09:08:59;95090.31;;;1.22;100.00
68889;BME280;55930;47.412;8.790;2024-03-06T09:12:19;95085.09;;;1.26;100.00
68889;BME280;55930;47.412;8.790;2024-03-06T09:15:40;95086.16;;;1.32;100.00
68889;BME280;55930;47.412;8.790;2024-03-06T09:19:00;95088.78;;;1.28;100.00
68889;BME280;55930;47.412;8.790;2024-03-06T09:22:21;95094.91;;;1.07;100.00
68889;BME280;55930;47.412;8.790;2024-03-06T09:25:41;95096.72;;;1.18;100.00
68889;BME280;55930;47.412;8.790;2024-03-06T09:29:02;95096.03;;;1.06;100.00
68889;BME280;55930;47.412;8.790;2024-03-06T09:32:22;95096.28;;;1.26;100.00
68889;BME280;55930;47.412;8.790;2024-03-06T09:35:43;95093.72;;;1.19;100.00
68889;BME280;55930;47.412;8.790;2024-03-06T09:39:05;95099.22;;;1.32;100.00
68889;BME280;55930;47.412;8.790;2024-03-06T09:42:25;95100.22;;;1.45;100.00
68889;BME280;55930;47.412;8.790;2024-03-06T09:45:48;95101.41;;;1.40;100.00
68889;BME280;55930;47.412;8.790;2024-03-06T09:49:09;95106.34;;;1.28;100.00
68889;BME280;55930;47.412;8.790;2024-03-06T09:52:30;95111.53;;;1.31;100.00
68889;BME280;55930;47.412;8.790;2024-03-06T09:55:51;95105.22;;;1.29;100.00
68889;BME280;55930;47.412;8.790;2024-03-06T09:59:12;95109.25;;;1.40;100.00
68889;BME280;55930;47.412;8.790;2024-03-06T10:02:38;95105.47;;;1.45;100.00
68889;BME280;55930;47.412;8.790;2024-03-06T10:06:01;95107.69;;;1.50;100.00
68889;BME280;55930;47.412;8.790;2024-03-06T10:09:21;95113.28;;;1.48;100.00
68889;BME280;55930;47.412;8.790;2024-03-06T10:12:47;95104.69;;;1.51;100.00
68889;BME280;55930;47.412;8.790;2024-03-06T10:16:10;95106.31;;;1.76;100.00
68889;BME280;55930;47.412;8.790;2024-03-06T10:19:32;95095.19;;;1.68;100.00
68889;BME280;55930;47.412;8.790;2024-03-06T10:22:53;95098.59;;;1.62;100.00
68889;BME280;55930;47.412;8.790;2024-03-06T10:26:16;95102.63;;;1.73;100.00
68889;BME280;55930;47.412;8.790;2024-03-06T10:29:36;95095.19;;;1.68;100.00
68889;BME280;55930;47.412;8.790;2024-03-06T10:32:57;95096.38;;;1.60;100.00
68889;BME280;55930;47.412;8.790;2024-03-06T10:36:18;95103.38;;;1.74;100.00
68889;BME280;55930;47.412;8.790;2024-03-06T10:39:42;95110.47;;;1.73;100.00
68889;BME280;55930;47.412;8.790;2024-03-06T10:43:05;95114.66;;;1.60;100.00
68889;BME280;55930;47.412;8.790;2024-03-06T10:46:27;95111.09;;;1.43;100.00
68889;BME280;55930;47.412;8.790;2024-03-06T10:49:48;95124.00;;;1.61;100.00
68889;BME280;55930;47.412;8.790;2024-03-06T10:53:16;95131.16;;;1.53;100.00
68889;BME280;55930;47.412;8.790;2024-03-06T10:56:39;95136.56;;;1.77;100.00
68889;BME280;55930;47.412;8.790;2024-03-06T11:00:02;95129.78;;;1.86;100.00
68889;BME280;55930;47.412;8.790;2024-03-06T11:03:25;95130.66;;;1.69;100.00
68889;BME280;55930;47.412;8.790;2024-03-06T11:06:46;95127.72;;;1.67;100.00
68889;BME280;55930;47.412;8.790;2024-03-06T11:10:08;95123.19;;;1.68;100.00
68889;BME280;55930;47.412;8.790;2024-03-06T11:13:39;95120.63;;;1.64;100.00
68889;BME280;55930;47.412;8.790;2024-03-06T11:17:06;95129.13;;;1.75;100.00
68889;BME280;55930;47.412;8.790;2024-03-06T11:20:33;95126.56;;;1.68;100.00
68889;BME280;55930;47.412;8.790;2024-03-06T11:28:05;95127.97;;;1.76;100.00
68889;BME280;55930;47.412;8.790;2024-03-06T11:31:25;95133.09;;;1.46;100.00
68889;BME280;55930;47.412;8.790;2024-03-06T11:34:48;95132.16;;;1.70;100.00
68889;BME280;55930;47.412;8.790;2024-03-06T11:38:09;95134.41;;;1.68;100.00
68889;BME280;55930;47.412;8.790;2024-03-06T11:41:38;95133.03;;;1.53;100.00
68889;BME280;55930;47.412;8.790;2024-03-06T11:45:16;95134.88;;;1.60;100.00
68889;BME280;55930;47.412;8.790;2024-03-06T11:48:37;95130.03;;;1.58;100.00
68889;BME280;55930;47.412;8.790;2024-03-06T11:52:00;95124.00;;;1.65;100.00
68889;BME280;55930;47.412;8.790;2024-03-06T11:55:22;95123.19;;;1.71;100.00
68889;BME280;55930;47.412;8.790;2024-03-06T11:58:42;95123.31;;;1.53;100.00
68889;BME280;55930;47.412;8.790;2024-03-06T12:02:06;95127.25;;;1.76;100.00
68889;BME280;55930;47.412;8.790;2024-03-06T12:05:29;95126.41;;;1.86;100.00
68889;BME280;55930;47.412;8.790;2024-03-06T12:08:49;95119.88;;;1.64;100.00
68889;BME280;55930;47.412;8.790;2024-03-06T12:12:11;95116.41;;;1.77;100.00
68889;BME280;55930;47.412;8.790;2024-03-06T12:15:32;95117.47;;;1.83;100.00
68889;BME280;55930;47.412;8.790;2024-03-06T12:18:56;95116.88;;;1.65;100.00
68889;BME280;55930;47.412;8.790;2024-03-06T12:22:25;95110.84;;;1.72;100.00
68889;BME280;55930;47.412;8.790;2024-03-06T12:25:45;95119.13;;;1.67;100.00
68889;BME280;55930;47.412;8.790;2024-03-06T12:29:11;95119.25;;;1.49;100.00
68889;BME280;55930;47.412;8.790;2024-03-06T12:32:32;95114.28;;;1.62;100.00
68889;BME280;55930;47.412;8.790;2024-03-06T12:36:06;95112.41;;;1.62;100.00
68889;BME280;55930;47.412;8.790;2024-03-06T12:39:27;95103.38;;;1.70;100.00
68889;BME280;55930;47.412;8.790;2024-03-06T12:42:47;95106.44;;;1.65;100.00
68889;BME280;55930;47.412;8.790;2024-03-06T12:46:09;95111.22;;;1.70;100.00
68889;BME280;55930;47.412;8.790;2024-03-06T12:49:29;95106.72;;;1.74;100.00
68889;BME280;55930;47.412;8.790;2024-03-06T12:52:50;95108.53;;;1.81;100.00
68889;BME280;55930;47.412;8.790;2024-03-06T12:56:12;95108.00;;;1.56;100.00
68889;BME280;55930;47.412;8.790;2024-03-06T12:59:35;95105.25;;;1.73;100.00
68889;BME280;55930;47.412;8.790;2024-03-06T13:02:57;95103.00;;;1.72;100.00
68889;BME280;55930;47.412;8.790;2024-03-06T13:06:17;95103.75;;;1.72;100.00
68889;BME280;55930;47.412;8.790;2024-03-06T13:09:37;95100.75;;;1.74;100.00
68889;BME280;55930;47.412;8.790;2024-03-06T13:12:58;95095.25;;;1.61;100.00
68889;BME280;55930;47.412;8.790;2024-03-06T13:16:18;95100.44;;;1.65;100.00
68889;BME280;55930;47.412;8.790;2024-03-06T13:19:41;95111.69;;;1.62;100.00
68889;BME280;55930;47.412;8.790;2024-03-06T13:23:01;95110.59;;;1.59;100.00
68889;BME280;55930;47.412;8.790;2024-03-06T13:26:21;95108.38;;;1.54;100.00
68889;BME280;55930;47.412;8.790;2024-03-06T13:29:42;95107.22;;;1.59;100.00
68889;BME280;55930;47.412;8.790;2024-03-06T13:33:02;95104.34;;;1.46;100.00
68889;BME280;55930;47.412;8.790;2024-03-06T13:36:23;95109.19;;;1.44;100.00
68889;BME280;55930;47.412;8.790;2024-03-06T13:39:43;95107.75;;;1.36;100.00
68889;BME280;55930;47.412;8.790;2024-03-06T13:43:03;95107.44;;;1.34;100.00
68889;BME280;55930;47.412;8.790;2024-03-06T13:46:24;95111.91;;;1.33;100.00
68889;BME280;55930;47.412;8.790;2024-03-06T13:49:44;95117.47;;;1.39;100.00
68889;BME280;55930;47.412;8.790;2024-03-06T13:53:04;95118.50;;;1.48;100.00
68889;BME280;55930;47.412;8.790;2024-03-06T13:56:25;95118.03;;;1.61;100.00
68889;BME280;55930;47.412;8.790;2024-03-06T13:59:46;95121.50;;;1.50;100.00
68889;BME280;55930;47.412;8.790;2024-03-06T14:03:06;95126.66;;;1.58;100.00
68889;BME280;55930;47.412;8.790;2024-03-06T14:06:26;95125.97;;;1.50;100.00
68889;BME280;55930;47.412;8.790;2024-03-06T14:09:47;95124.56;;;1.38;100.00
68889;BME280;55930;47.412;8.790;2024-03-06T14:13:07;95127.59;;;1.33;100.00
68889;BME280;55930;47.412;8.790;2024-03-06T14:16:28;95129.34;;;1.47;100.00
68889;BME280;55930;47.412;8.790;2024-03-06T14:19:49;95128.28;;;1.41;100.00
68889;BME280;55930;47.412;8.790;2024-03-06T14:23:12;95133.56;;;1.34;100.00
68889;BME280;55930;47.412;8.790;2024-03-06T14:26:35;95143.91;;;1.51;100.00
68889;BME280;55930;47.412;8.790;2024-03-06T14:29:55;95136.88;;;1.41;100.00
68889;BME280;55930;47.412;8.790;2024-03-06T14:33:15;95133.56;;;1.34;100.00
68889;BME280;55930;47.412;8.790;2024-03-06T14:36:36;95138.84;;;1.27;100.00
68889;BME280;55930;47.412;8.790;2024-03-06T14:39:56;95138.34;;;1.42;100.00
68889;BME280;55930;47.412;8.790;2024-03-06T14:43:17;95145.41;;;1.49;100.00
68889;BME280;55930;47.412;8.790;2024-03-06T14:46:37;95138.41;;;1.35;100.00
68889;BME280;55930;47.412;8.790;2024-03-06T14:49:57;95136.50;;;1.36;100.00
68889;BME280;55930;47.412;8.790;2024-03-06T14:53:18;95141.75;;;1.36;100.00
68889;BME280;55930;47.412;8.790;2024-03-06T14:56:39;95143.22;;;1.37;100.00
68889;BME280;55930;47.412;8.790;2024-03-06T15:00:02;95145.84;;;1.37;100.00
68889;BME280;55930;47.412;8.790;2024-03-06T15:03:26;95138.88;;;1.20;100.00
68889;BME280;55930;47.412;8.790;2024-03-06T15:06:47;95138.84;;;1.23;100.00
68889;BME280;55930;47.412;8.790;2024-03-06T15:10:07;95141.13;;;1.18;100.00
68889;BME280;55930;47.412;8.790;2024-03-06T15:13:28;95144.06;;;1.23;100.00
68889;BME280;55930;47.412;8.790;2024-03-06T15:16:49;95142.59;;;1.22;100.00
68889;BME280;55930;47.412;8.790;2024-03-06T15:20:10;95134.06;;;1.14;100.00
68889;BME280;55930;47.412;8.790;2024-03-06T15:23:31;95134.06;;;1.14;100.00
68889;BME280;55930;47.412;8.790;2024-03-06T15:26:52;95134.84;;;1.04;100.00
68889;BME280;55930;47.412;8.790;2024-03-06T15:30:13;95138.94;;;1.05;100.00
68889;BME280;55930;47.412;8.790;2024-03-06T15:33:34;95140.84;;;1.01;100.00
68889;BME280;55930;47.412;8.790;2024-03-06T15:36:54;95140.06;;;1.08;100.00
68889;BME280;55930;47.412;8.790;2024-03-06T15:40:16;95140.84;;;0.98;100.00
68889;BME280;55930;47.412;8.790;2024-03-06T15:43:37;95146.09;;;0.98;100.00
68889;BME280;55930;47.412;8.790;2024-03-06T15:46:57;95146.44;;;1.03;100.00
68889;BME280;55930;47.412;8.790;2024-03-06T15:50:17;95139.72;;;1.02;100.00
68889;BME280;55930;47.412;8.790;2024-03-06T15:53:38;95144.22;;;0.98;100.00
68889;BME280;55930;47.412;8.790;2024-03-06T15:56:58;95145.72;;;0.99;100.00
68889;BME280;55930;47.412;8.790;2024-03-06T16:00:19;95153.13;;;1.08;100.00
68889;BME280;55930;47.412;8.790;2024-03-06T16:03:41;95151.66;;;1.03;100.00
68889;BME280;55930;47.412;8.790;2024-03-06T16:07:01;95150.97;;;0.92;100.00
68889;BME280;55930;47.412;8.790;2024-03-06T16:10:26;95152.41;;;1.00;100.00
68889;BME280;55930;47.412;8.790;2024-03-06T16:13:47;95154.28;;;1.03;100.00
68889;BME280;55930;47.412;8.790;2024-03-06T16:17:09;95152.78;;;0.99;100.00
68889;BME280;55930;47.412;8.790;2024-03-06T16:20:30;95156.94;;;0.89;100.00
68889;BME280;55930;47.412;8.790;2024-03-06T16:23:50;95161.47;;;0.82;100.00
68889;BME280;55930;47.412;8.790;2024-03-06T16:27:11;95163.28;;;0.92;100.00
68889;BME280;55930;47.412;8.790;2024-03-06T16:30:34;95164.81;;;0.82;100.00
68889;BME280;55930;47.412;8.790;2024-03-06T16:33:54;95166.72;;;0.78;100.00
68889;BME280;55930;47.412;8.790;2024-03-06T16:37:15;95170.38;;;0.91;100.00
68889;BME280;55930;47.412;8.790;2024-03-06T16:40:40;95165.53;;;0.90;100.00
68889;BME280;55930;47.412;8.790;2024-03-06T16:44:01;95167.44;;;0.82;100.00
68889;BME280;55930;47.412;8.790;2024-03-06T16:47:21;95172.72;;;0.71;100.00
68889;BME280;55930;47.412;8.790;2024-03-06T16:50:42;95167.84;;;0.77;100.00
68889;BME280;55930;47.412;8.790;2024-03-06T16:54:02;95177.94;;;0.68;100.00
68889;BME280;55930;47.412;8.790;2024-03-06T16:57:23;95170.09;;;0.71;100.00
68889;BME280;55930;47.412;8.790;2024-03-06T17:00:43;95174.94;;;0.73;100.00
68889;BME280;55930;47.412;8.790;2024-03-06T17:04:04;95167.47;;;0.79;100.00
68889;BME280;55930;47.412;8.790;2024-03-06T17:07:24;95176.41;;;0.74;100.00
68889;BME280;55930;47.412;8.790;2024-03-06T17:10:44;95166.00;;;0.67;100.00
68889;BME280;55930;47.412;8.790;2024-03-06T17:14:05;95172.72;;;0.71;100.00
68889;BME280;55930;47.412;8.790;2024-03-06T17:17:25;95181.66;;;0.70;100.00
68889;BME280;55930;47.412;8.790;2024-03-06T17:20:46;95174.94;;;0.73;100.00
68889;BME280;55930;47.412;8.790;2024-03-06T17:24:06;95183.19;;;0.61;100.00
68889;BME280;55930;47.412;8.790;2024-03-06T17:27:29;95187.63;;;0.71;100.00
68889;BME280;55930;47.412;8.790;2024-03-06T17:30:52;95193.59;;;0.68;100.00
68889;BME280;55930;47.412;8.790;2024-03-06T17:34:16;95189.91;;;0.62;100.00
68889;BME280;55930;47.412;8.790;2024-03-06T17:37:36;95191.03;;;0.54;100.00
68889;BME280;55930;47.412;8.790;2024-03-06T17:40:56;95195.88;;;0.59;100.00
68889;BME280;55930;47.412;8.790;2024-03-06T17:44:17;95195.84;;;0.66;100.00
68889;BME280;55930;47.412;8.790;2024-03-06T17:47:37;95194.72;;;0.70;100.00
68889;BME280;55930;47.412;8.790;2024-03-06T17:51:00;95208.88;;;0.69;100.00